sensor_id;sensor_type;location;lat;lon;timestamp;pressure;altitude;pressure_sealevel;temperature;humidity
21779;BME280;11050;52.222;20.916;2024-03-08T00:00:10;101050.69;;;0.86;100.00
21779;BME280;11050;52.222;20.916;2024-03-08T00:02:42;101040.88;;;0.85;100.00
21779;BME280;11050;52.222;20.916;2024-03-08T00:05:08;101045.47;;;0.84;100.00
21779;BME280;11050;52.222;20.916;2024-03-08T00:07:35;101044.59;;;0.84;100.00
21779;BME280;11050;52.222;20.916;2024-03-08T00:10:06;101043.94;;;0.82;100.00
21779;BME280;11050;52.222;20.916;2024-03-08T00:12:40;101044.97;;;0.81;100.00
21779;BME280;11050;52.222;20.916;2024-03-08T00:15:12;101043.25;;;0.80;100.00
21779;BME280;11050;52.222;20.916;2024-03-08T00:17:40;101043.25;;;0.80;100.00
21779;BME280;11050;52.222;20.916;2024-03-08T00:20:07;101041.41;;;0.80;100.00
21779;BME280;11050;52.222;20.916;2024-03-08T00:22:37;101045.28;;;0.78;100.00
21779;BME280;11050;52.222;20.916;2024-03-08T00:25:05;101036.00;;;0.72;100.00
21779;BME280;11050;52.222;20.916;2024-03-08T00:27:31;101036.00;;;0.72;100.00
21779;BME280;11050;52.222;20.916;2024-03-08T00:30:00;101037.19;;;0.70;100.00
21779;BME280;11050;52.222;20.916;2024-03-08T00:32:27;101033.31;;;0.72;100.00
21779;BME280;11050;52.222;20.916;2024-03-08T00:34:57;101038.91;;;0.71;100.00
21779;BME280;11050;52.222;20.916;2024-03-08T00:37:23;101031.13;;;0.68;100.00
21779;BME280;11050;52.222;20.916;2024-03-08T00:39:50;101041.78;;;0.69;100.00
21779;BME280;11050;52.222;20.916;2024-03-08T00:42:17;101023.34;;;0.65;100.00
21779;BME280;11050;52.222;20.916;2024-03-08T00:44:43;101038.41;;;0.67;100.00
21779;BME280;11050;52.222;20.916;2024-03-08T00:47:10;101029.44;;;0.67;100.00
21779;BME280;11050;52.222;20.916;2024-03-08T00:49:36;101036.53;;;0.68;100.00
21779;BME280;11050;52.222;20.916;2024-03-08T00:52:04;101034.00;;;0.66;100.00
21779;BME280;11050;52.222;20.916;2024-03-08T00:54:34;101027.75;;;0.66;100.00
21779;BME280;11050;52.222;20.916;2024-03-08T00:57:01;101026.72;;;0.67;100.00
21779;BME280;11050;52.222;20.916;2024-03-08T00:59:31;101026.22;;;0.63;100.00
21779;BME280;11050;52.222;20.916;2024-03-08T01:01:59;101023.72;;;0.62;100.00
21779;BME280;11050;52.222;20.916;2024-03-08T01:04:26;101029.13;;;0.62;100.00
21779;BME280;11050;52.222;20.916;2024-03-08T01:06:57;101024.53;;;0.62;100.00
21779;BME280;11050;52.222;20.916;2024-03-08T01:09:24;101026.22;;;0.63;100.00
21779;BME280;11050;52.222;20.916;2024-03-08T01:11:50;101029.44;;;0.67;100.00
21779;BME280;11050;52.222;20.916;2024-03-08T01:14:16;101020.47;;;0.66;100.00
21779;BME280;11050;52.222;20.916;2024-03-08T01:16:42;101017.75;;;0.66;100.00
21779;BME280;11050;52.222;20.916;2024-03-08T01:19:08;101021.50;;;0.65;100.00
21779;BME280;11050;52.222;20.916;2024-03-08T01:21:34;101018.97;;;0.64;100.00
21779;BME280;11050;52.222;20.916;2024-03-08T01:24:00;101018.97;;;0.64;100.00
21779;BME280;11050;52.222;20.916;2024-03-08T01:26:25;101016.28;;;0.64;100.00
21779;BME280;11050;52.222;20.916;2024-03-08T01:28:51;101010.84;;;0.64;100.00
21779;BME280;11050;52.222;20.916;2024-03-08T01:31:17;101010.84;;;0.64;100.00
21779;BME280;11050;52.222;20.916;2024-03-08T01:33:43;101007.47;;;0.62;100.00
21779;BME280;11050;52.222;20.916;2024-03-08T01:36:08;101010.38;;;0.60;100.00
21779;BME280;11050;52.222;20.916;2024-03-08T01:38:34;101006.81;;;0.60;100.00
21779;BME280;11050;52.222;20.916;2024-03-08T01:41:01;101009.00;;;0.56;100.00
21779;BME280;11050;52.222;20.916;2024-03-08T01:43:29;101008.53;;;0.53;100.00
21779;BME280;11050;52.222;20.916;2024-03-08T01:45:58;101008.16;;;0.48;100.00
21779;BME280;11050;52.222;20.916;2024-03-08T01:48:30;101010.56;;;0.51;100.00
21779;BME280;11050;52.222;20.916;2024-03-08T01:50:57;101003.97;;;0.45;100.00
21779;BME280;11050;52.222;20.916;2024-03-08T01:53:28;101014.25;;;0.42;100.00
21779;BME280;11050;52.222;20.916;2024-03-08T01:55:57;101005.16;;;0.43;100.00
21779;BME280;11050;52.222;20.916;2024-03-08T01:58:24;101003.31;;;0.43;100.00
21779;BME280;11050;52.222;20.916;2024-03-08T02:00:53;101004.28;;;0.42;100.00
21779;BME280;11050;52.222;20.916;2024-03-08T02:03:19;101008.34;;;0.38;100.00
21779;BME280;11050;52.222;20.916;2024-03-08T02:05:44;101000.06;;;0.40;100.00
21779;BME280;11050;52.222;20.916;2024-03-08T02:08:11;100998.56;;;0.37;100.00
21779;BME280;11050;52.222;20.916;2024-03-08T02:10:39;100999.75;;;0.35;100.00
21779;BME280;11050;52.222;20.916;2024-03-08T02:13:06;100986.41;;;0.33;100.00
21779;BME280;11050;52.222;20.916;2024-03-08T02:15:58;100992.16;;;0.30;100.00
21779;BME280;11050;52.222;20.916;2024-03-08T02:18:29;100991.31;;;0.30;100.00
21779;BME280;11050;52.222;20.916;2024-03-08T02:20:57;100991.50;;;0.28;100.00
21779;BME280;11050;52.222;20.916;2024-03-08T02:23:23;100990.81;;;0.26;100.00
21779;BME280;11050;52.222;20.916;2024-03-08T02:25:54;100989.13;;;0.25;100.00
21779;BME280;11050;52.222;20.916;2024-03-08T02:28:20;100986.78;;;0.22;100.00
21779;BME280;11050;52.222;20.916;2024-03-08T02:30:50;100988.78;;;0.20;100.00
21779;BME280;11050;52.222;20.916;2024-03-08T02:33:18;100990.31;;;0.23;100.00
21779;BME280;11050;52.222;20.916;2024-03-08T02:35:48;100983.88;;;0.16;100.00
21779;BME280;11050;52.222;20.916;2024-03-08T02:38:16;100977.66;;;0.15;100.00
21779;BME280;11050;52.222;20.916;2024-03-08T02:40:47;100985.91;;;0.14;100.00
21779;BME280;11050;52.222;20.916;2024-03-08T02:43:15;100984.56;;;0.10;100.00
21779;BME280;11050;52.222;20.916;2024-03-08T02:45:41;100983.91;;;0.08;100.00
21779;BME280;11050;52.222;20.916;2024-03-08T02:48:11;100976.13;;;0.05;100.00
21779;BME280;11050;52.222;20.916;2024-03-08T02:50:38;100981.88;;;0.02;100.00
21779;BME280;11050;52.222;20.916;2024-03-08T02:53:06;100983.06;;;-0.01;100.00
21779;BME280;11050;52.222;20.916;2024-03-08T02:55:32;100978.81;;;-0.04;100.00
21779;BME280;11050;52.222;20.916;2024-03-08T02:58:04;100978.16;;;-0.06;100.00
21779;BME280;11050;52.222;20.916;2024-03-08T03:00:30;100973.94;;;-0.08;100.00
21779;BME280;11050;52.222;20.916;2024-03-08T03:02:57;100973.94;;;-0.08;100.00
21779;BME280;11050;52.222;20.916;2024-03-08T03:05:24;100967.88;;;-0.10;100.00
21779;BME280;11050;52.222;20.916;2024-03-08T03:07:50;100973.28;;;-0.10;100.00
21779;BME280;11050;52.222;20.916;2024-03-08T03:10:19;100968.03;;;-0.12;100.00
21779;BME280;11050;52.222;20.916;2024-03-08T03:12:48;100973.94;;;-0.16;100.00
21779;BME280;11050;52.222;20.916;2024-03-08T03:15:17;100978.50;;;-0.17;100.00
21779;BME280;11050;52.222;20.916;2024-03-08T03:17:50;100974.44;;;-0.21;100.00
21779;BME280;11050;52.222;20.916;2024-03-08T03:20:19;100968.03;;;-0.20;100.00
21779;BME280;11050;52.222;20.916;2024-03-08T03:22:52;100971.91;;;-0.22;100.00
21779;BME280;11050;52.222;20.916;2024-03-08T03:25:19;100978.84;;;-0.20;100.00
21779;BME280;11050;52.222;20.916;2024-03-08T03:27:52;100972.59;;;-0.20;100.00
21779;BME280;11050;52.222;20.916;2024-03-08T03:30:18;100974.13;;;-0.18;100.00
21779;BME280;11050;52.222;20.916;2024-03-08T03:32:48;100970.56;;;-0.18;100.00
21779;BME280;11050;52.222;20.916;2024-03-08T03:35:14;100966.00;;;-0.18;100.00
21779;BME280;11050;52.222;20.916;2024-03-08T03:37:43;100970.56;;;-0.18;100.00
21779;BME280;11050;52.222;20.916;2024-03-08T03:40:12;100969.72;;;-0.19;100.00
21779;BME280;11050;52.222;20.916;2024-03-08T03:42:38;100970.06;;;-0.22;100.00
21779;BME280;11050;52.222;20.916;2024-03-08T03:45:06;100968.34;;;-0.23;100.00
21779;BME280;11050;52.222;20.916;2024-03-08T03:47:31;100970.22;;;-0.23;100.00
21779;BME280;11050;52.222;20.916;2024-03-08T03:49:57;100967.72;;;-0.25;100.00
21779;BME280;11050;52.222;20.916;2024-03-08T03:52:27;100964.47;;;-0.28;100.00
21779;BME280;11050;52.222;20.916;2024-03-08T03:54:53;100961.94;;;-0.30;100.00
21779;BME280;11050;52.222;20.916;2024-03-08T03:57:19;100957.75;;;-0.32;100.00
21779;BME280;11050;52.222;20.916;2024-03-08T03:59:45;100960.28;;;-0.31;100.00
21779;BME280;11050;52.222;20.916;2024-03-08T04:02:13;100952.84;;;-0.29;100.00
21779;BME280;11050;52.222;20.916;2024-03-08T04:04:38;100951.81;;;-0.28;100.00
21779;BME280;11050;52.222;20.916;2024-03-08T04:07:04;100955.56;;;-0.29;100.00
21779;BME280;11050;52.222;20.916;2024-03-08T04:09:30;100942.72;;;-0.35;100.00
21779;BME280;11050;52.222;20.916;2024-03-08T04:11:56;100945.41;;;-0.35;100.00
21779;BME280;11050;52.222;20.916;2024-03-08T04:14:23;100946.28;;;-0.34;100.00
21779;BME280;11050;52.222;20.916;2024-03-08T04:16:49;100956.38;;;-0.36;100.00
21779;BME280;11050;52.222;20.916;2024-03-08T04:19:15;100943.03;;;-0.38;100.00
21779;BME280;11050;52.222;20.916;2024-03-08T04:21:40;100953.00;;;-0.38;100.00
21779;BME280;11050;52.222;20.916;2024-03-08T04:24:07;100947.63;;;-0.38;100.00
21779;BME280;11050;52.222;20.916;2024-03-08T04:26:34;100945.09;;;-0.40;100.00
21779;BME280;11050;52.222;20.916;2024-03-08T04:29:00;100948.78;;;-0.41;100.00
21779;BME280;11050;52.222;20.916;2024-03-08T04:31:26;100950.63;;;-0.41;100.00
21779;BME280;11050;52.222;20.916;2024-03-08T04:33:52;100942.38;;;-0.48;100.00
21779;BME280;11050;52.222;20.916;2024-03-08T04:36:18;100951.16;;;-0.46;100.00
21779;BME280;11050;52.222;20.916;2024-03-08T04:38:45;100942.38;;;-0.48;100.00
21779;BME280;11050;52.222;20.916;2024-03-08T04:41:11;100948.75;;;-0.49;100.00
21779;BME280;11050;52.222;20.916;2024-03-08T04:43:37;100943.72;;;-0.52;100.00
21779;BME280;11050;52.222;20.916;2024-03-08T04:46:03;100938.31;;;-0.52;100.00
21779;BME280;11050;52.222;20.916;2024-03-08T04:48:29;100941.00;;;-0.52;100.00
21779;BME280;11050;52.222;20.916;2024-03-08T04:50:55;100943.72;;;-0.52;100.00
21779;BME280;11050;52.222;20.916;2024-03-08T04:53:21;100941.00;;;-0.52;100.00
21779;BME280;11050;52.222;20.916;2024-03-08T04:55:47;100944.72;;;-0.53;100.00
21779;BME280;11050;52.222;20.916;2024-03-08T04:58:13;100938.66;;;-0.55;100.00
21779;BME280;11050;52.222;20.916;2024-03-08T05:00:38;100932.38;;;-0.63;100.00
21779;BME280;11050;52.222;20.916;2024-03-08T05:03:04;100944.53;;;-0.59;100.00
21779;BME280;11050;52.222;20.916;2024-03-08T05:05:30;100942.03;;;-0.61;100.00
21779;BME280;11050;52.222;20.916;2024-03-08T05:07:56;100940.31;;;-0.62;100.00
21779;BME280;11050;52.222;20.916;2024-03-08T05:10:22;100951.78;;;-0.60;100.00
21779;BME280;11050;52.222;20.916;2024-03-08T05:12:48;100948.09;;;-0.59;100.00
21779;BME280;11050;52.222;20.916;2024-03-08T05:15:14;100944.06;;;-0.55;100.00
21779;BME280;11050;52.222;20.916;2024-03-08T05:17:40;100948.44;;;-0.54;100.00
21779;BME280;11050;52.222;20.916;2024-03-08T05:20:06;100951.16;;;-0.46;100.00
21779;BME280;11050;52.222;20.916;2024-03-08T05:22:37;100942.69;;;-0.43;100.00
21779;BME280;11050;52.222;20.916;2024-03-08T05:25:04;100950.31;;;-0.38;100.00
21779;BME280;11050;52.222;20.916;2024-03-08T05:27:29;100941.00;;;-0.36;100.00
21779;BME280;11050;52.222;20.916;2024-03-08T05:29:55;100939.00;;;-0.34;100.00
21779;BME280;11050;52.222;20.916;2024-03-08T05:32:21;100944.06;;;-0.31;100.00
21779;BME280;11050;52.222;20.916;2024-03-08T05:34:47;100955.88;;;-0.24;100.00
21779;BME280;11050;52.222;20.916;2024-03-08T05:37:12;100943.38;;;-0.17;100.00
21779;BME280;11050;52.222;20.916;2024-03-08T05:39:38;100948.28;;;-0.12;100.00
21779;BME280;11050;52.222;20.916;2024-03-08T05:42:04;100939.66;;;-0.08;100.00
21779;BME280;11050;52.222;20.916;2024-03-08T05:44:30;100937.63;;;-0.06;100.00
21779;BME280;11050;52.222;20.916;2024-03-08T05:46:56;100941.38;;;0.02;100.00
21779;BME280;11050;52.222;20.916;2024-03-08T05:49:22;100942.84;;;0.12;100.00
21779;BME280;11050;52.222;20.916;2024-03-08T05:51:48;100945.38;;;0.22;100.00
21779;BME280;11050;52.222;20.916;2024-03-08T05:54:14;100944.34;;;0.31;100.00
21779;BME280;11050;52.222;20.916;2024-03-08T05:56:41;100939.94;;;0.38;100.00
21779;BME280;11050;52.222;20.916;2024-03-08T05:59:11;100946.34;;;0.45;100.00
21779;BME280;11050;52.222;20.916;2024-03-08T06:01:37;100941.06;;;0.51;100.00
21779;BME280;11050;52.222;20.916;2024-03-08T06:04:04;100947.13;;;0.61;100.00
21779;BME280;11050;52.222;20.916;2024-03-08T06:06:30;100942.38;;;0.71;100.00
21779;BME280;11050;52.222;20.916;2024-03-08T06:08:56;100944.50;;;0.84;100.00
21779;BME280;11050;52.222;20.916;2024-03-08T06:11:25;100942.59;;;0.92;100.00
21779;BME280;11050;52.222;20.916;2024-03-08T06:13:55;100949.50;;;1.03;100.00
21779;BME280;11050;52.222;20.916;2024-03-08T06:16:28;100944.53;;;1.15;100.00
21779;BME280;11050;52.222;20.916;2024-03-08T06:18:58;100946.84;;;1.26;100.00
21779;BME280;11050;52.222;20.916;2024-03-08T06:21:24;100942.88;;;1.36;100.00
21779;BME280;11050;52.222;20.916;2024-03-08T06:23:54;100946.03;;;1.48;100.00
21779;BME280;11050;52.222;20.916;2024-03-08T06:26:25;100943.25;;;1.56;100.00
21779;BME280;11050;52.222;20.916;2024-03-08T06:28:54;100951.81;;;1.67;100.00
21779;BME280;11050;52.222;20.916;2024-03-08T06:31:20;100956.13;;;1.76;100.00
21779;BME280;11050;52.222;20.916;2024-03-08T06:33:46;100957.47;;;1.80;100.00
21779;BME280;11050;52.222;20.916;2024-03-08T06:36:17;100961.78;;;1.89;100.00
21779;BME280;11050;52.222;20.916;2024-03-08T06:38:50;100945.38;;;2.06;100.00
21779;BME280;11050;52.222;20.916;2024-03-08T06:41:16;100947.34;;;2.12;100.00
21779;BME280;11050;52.222;20.916;2024-03-08T06:43:43;100954.38;;;2.21;100.00
21779;BME280;11050;52.222;20.916;2024-03-08T06:46:10;100962.75;;;2.34;100.00
21779;BME280;11050;52.222;20.916;2024-03-08T06:48:41;100957.22;;;2.42;100.00
21779;BME280;11050;52.222;20.916;2024-03-08T06:51:07;100956.28;;;2.49;100.00
21779;BME280;11050;52.222;20.916;2024-03-08T06:53:33;100955.00;;;2.60;100.00
21779;BME280;11050;52.222;20.916;2024-03-08T06:56:01;100954.16;;;2.74;100.00
21779;BME280;11050;52.222;20.916;2024-03-08T06:58:27;100958.09;;;2.86;100.00
21779;BME280;11050;52.222;20.916;2024-03-08T07:00:54;100959.13;;;3.00;100.00
21779;BME280;11050;52.222;20.916;2024-03-08T07:03:23;100956.94;;;3.10;100.00
21779;BME280;11050;52.222;20.916;2024-03-08T07:05:49;100946.63;;;3.20;100.00
21779;BME280;11050;52.222;20.916;2024-03-08T07:08:15;100956.44;;;3.35;100.00
21779;BME280;11050;52.222;20.916;2024-03-08T07:10:42;100946.06;;;3.45;100.00
21779;BME280;11050;52.222;20.916;2024-03-08T07:13:10;100951.81;;;3.50;100.00
21779;BME280;11050;52.222;20.916;2024-03-08T07:15:36;100949.22;;;3.63;100.00
21779;BME280;11050;52.222;20.916;2024-03-08T07:18:02;100947.00;;;3.73;100.00
21779;BME280;11050;52.222;20.916;2024-03-08T07:20:28;100946.88;;;3.81;100.00
21779;BME280;11050;52.222;20.916;2024-03-08T07:22:54;100946.69;;;3.83;100.00
21779;BME280;11050;52.222;20.916;2024-03-08T07:25:20;100947.66;;;3.97;100.00
21779;BME280;11050;52.222;20.916;2024-03-08T07:27:53;100949.63;;;4.09;100.00
21779;BME280;11050;52.222;20.916;2024-03-08T07:30:25;100949.78;;;4.22;100.00
21779;BME280;11050;52.222;20.916;2024-03-08T07:33:10;100947.59;;;4.39;100.00
21779;BME280;11050;52.222;20.916;2024-03-08T07:35:40;100940.97;;;4.54;100.00
21779;BME280;11050;52.222;20.916;2024-03-08T07:38:09;100935.25;;;4.70;97.83
21779;BME280;11050;52.222;20.916;2024-03-08T07:40:40;100942.44;;;4.84;96.19
21779;BME280;11050;52.222;20.916;2024-03-08T07:43:09;100939.16;;;4.96;94.89
21779;BME280;11050;52.222;20.916;2024-03-08T07:45:37;100945.06;;;5.06;92.60
21779;BME280;11050;52.222;20.916;2024-03-08T07:48:03;100945.75;;;5.14;90.84
21779;BME280;11050;52.222;20.916;2024-03-08T07:50:29;100947.88;;;5.25;89.31
21779;BME280;11050;52.222;20.916;2024-03-08T07:52:55;100944.13;;;5.33;85.59
21779;BME280;11050;52.222;20.916;2024-03-08T07:55:20;100943.31;;;5.45;85.05
21779;BME280;11050;52.222;20.916;2024-03-08T07:57:49;100941.69;;;5.57;82.19
21779;BME280;11050;52.222;20.916;2024-03-08T08:00:16;100945.91;;;5.66;82.02
21779;BME280;11050;52.222;20.916;2024-03-08T08:02:46;100937.75;;;5.73;80.17
21779;BME280;11050;52.222;20.916;2024-03-08T08:05:16;100943.91;;;5.88;79.30
21779;BME280;11050;52.222;20.916;2024-03-08T08:07:46;100943.28;;;5.99;76.31
21779;BME280;11050;52.222;20.916;2024-03-08T08:10:16;100927.09;;;6.04;75.12
21779;BME280;11050;52.222;20.916;2024-03-08T08:12:48;100939.69;;;6.25;74.20
21779;BME280;11050;52.222;20.916;2024-03-08T08:15:15;100942.19;;;6.39;72.90
21779;BME280;11050;52.222;20.916;2024-03-08T08:17:44;100939.91;;;6.49;70.86
21779;BME280;11050;52.222;20.916;2024-03-08T08:20:11;100924.97;;;6.65;68.98
21779;BME280;11050;52.222;20.916;2024-03-08T08:22:39;100930.63;;;6.70;66.60
21779;BME280;11050;52.222;20.916;2024-03-08T08:25:09;100927.25;;;6.75;64.13
21779;BME280;11050;52.222;20.916;2024-03-08T08:27:38;100927.63;;;6.85;63.36
21779;BME280;11050;52.222;20.916;2024-03-08T08:30:06;100937.47;;;6.92;62.34
21779;BME280;11050;52.222;20.916;2024-03-08T08:32:35;100932.00;;;6.99;62.39
21779;BME280;11050;52.222;20.916;2024-03-08T08:35:03;100936.59;;;7.11;61.33
21779;BME280;11050;52.222;20.916;2024-03-08T08:37:30;100935.50;;;7.19;59.64
21779;BME280;11050;52.222;20.916;2024-03-08T08:39:57;100926.03;;;7.21;57.29
21779;BME280;11050;52.222;20.916;2024-03-08T08:42:23;100928.94;;;7.26;56.59
21779;BME280;11050;52.222;20.916;2024-03-08T08:44:50;100923.69;;;7.31;56.54
21779;BME280;11050;52.222;20.916;2024-03-08T08:47:16;100928.88;;;7.39;56.60
21779;BME280;11050;52.222;20.916;2024-03-08T08:49:45;100922.31;;;7.47;56.58
21779;BME280;11050;52.222;20.916;2024-03-08T08:52:12;100917.78;;;7.65;56.02
21779;BME280;11050;52.222;20.916;2024-03-08T08:54:38;100915.00;;;7.79;55.44
21779;BME280;11050;52.222;20.916;2024-03-08T08:57:04;100912.19;;;7.92;55.47
21779;BME280;11050;52.222;20.916;2024-03-08T08:59:34;100914.84;;;7.98;53.61
21779;BME280;11050;52.222;20.916;2024-03-08T09:02:06;100910.63;;;7.96;52.03
21779;BME280;11050;52.222;20.916;2024-03-08T09:04:32;100919.31;;;7.93;52.05
21779;BME280;11050;52.222;20.916;2024-03-08T09:06:58;100907.41;;;8.05;52.33
21779;BME280;11050;52.222;20.916;2024-03-08T09:09:24;100913.63;;;8.19;49.89
21779;BME280;11050;52.222;20.916;2024-03-08T09:11:51;100909.81;;;8.26;49.96
21779;BME280;11050;52.222;20.916;2024-03-08T09:14:17;100904.91;;;8.35;49.71
21779;BME280;11050;52.222;20.916;2024-03-08T09:16:43;100902.47;;;8.45;49.79
21779;BME280;11050;52.222;20.916;2024-03-08T09:19:08;100899.38;;;8.59;48.43
21779;BME280;11050;52.222;20.916;2024-03-08T09:21:36;100902.66;;;8.68;46.90
21779;BME280;11050;52.222;20.916;2024-03-08T09:24:03;100895.94;;;8.64;47.63
21779;BME280;11050;52.222;20.916;2024-03-08T09:26:28;100894.06;;;8.65;47.75
21779;BME280;11050;52.222;20.916;2024-03-08T09:28:54;100887.19;;;8.55;48.06
21779;BME280;11050;52.222;20.916;2024-03-08T09:31:21;100898.88;;;8.69;47.62
21779;BME280;11050;52.222;20.916;2024-03-08T09:33:47;100892.00;;;8.78;47.32
21779;BME280;11050;52.222;20.916;2024-03-08T09:36:13;100889.56;;;8.88;47.22
21779;BME280;11050;52.222;20.916;2024-03-08T09:38:40;100889.41;;;9.01;46.77
21779;BME280;11050;52.222;20.916;2024-03-08T09:41:06;100895.19;;;9.11;46.64
21779;BME280;11050;52.222;20.916;2024-03-08T09:43:32;100880.25;;;9.07;44.58
21779;BME280;11050;52.222;20.916;2024-03-08T09:45:59;100884.09;;;9.06;44.61
21779;BME280;11050;52.222;20.916;2024-03-08T09:48:26;100889.09;;;9.09;45.61
21779;BME280;11050;52.222;20.916;2024-03-08T09:50:52;100889.53;;;9.24;45.89
21779;BME280;11050;52.222;20.916;2024-03-08T09:53:19;100887.09;;;9.34;45.18
21779;BME280;11050;52.222;20.916;2024-03-08T09:55:48;100888.19;;;9.45;44.55
21779;BME280;11050;52.222;20.916;2024-03-08T09:58:16;100882.06;;;9.61;44.43
21779;BME280;11050;52.222;20.916;2024-03-08T10:00:48;100881.41;;;9.77;44.85
21779;BME280;11050;52.222;20.916;2024-03-08T10:03:13;100879.88;;;9.93;44.59
21779;BME280;11050;52.222;20.916;2024-03-08T10:05:42;100883.88;;;10.08;43.55
21779;BME280;11050;52.222;20.916;2024-03-08T10:08:10;100883.78;;;10.15;42.24
21779;BME280;11050;52.222;20.916;2024-03-08T10:10:36;100879.38;;;10.14;41.26
21779;BME280;11050;52.222;20.916;2024-03-08T10:13:07;100880.16;;;10.03;40.51
21779;BME280;11050;52.222;20.916;2024-03-08T10:15:32;100884.81;;;10.02;40.61
21779;BME280;11050;52.222;20.916;2024-03-08T10:17:59;100874.66;;;10.03;40.30
21779;BME280;11050;52.222;20.916;2024-03-08T10:20:25;100869.19;;;10.03;40.39
21779;BME280;11050;52.222;20.916;2024-03-08T10:22:52;100873.03;;;10.13;40.48
21779;BME280;11050;52.222;20.916;2024-03-08T10:25:19;100871.47;;;10.17;40.07
21779;BME280;11050;52.222;20.916;2024-03-08T10:27:45;100869.44;;;10.24;40.42
21779;BME280;11050;52.222;20.916;2024-03-08T10:30:14;100866.25;;;10.27;39.17
21779;BME280;11050;52.222;20.916;2024-03-08T10:32:41;100861.81;;;10.38;38.93
21779;BME280;11050;52.222;20.916;2024-03-08T10:35:08;100864.56;;;10.49;38.69
21779;BME280;11050;52.222;20.916;2024-03-08T10:40:10;100858.34;;;10.54;39.64
21779;BME280;11050;52.222;20.916;2024-03-08T10:42:54;100856.66;;;10.76;39.78
21779;BME280;11050;52.222;20.916;2024-03-08T10:45:39;100855.44;;;10.84;39.46
21779;BME280;11050;52.222;20.916;2024-03-08T10:48:30;100861.75;;;10.84;39.16
21779;BME280;11050;52.222;20.916;2024-03-08T10:51:03;100843.72;;;10.77;39.58
21779;BME280;11050;52.222;20.916;2024-03-08T10:53:30;100861.31;;;10.76;39.03
21779;BME280;11050;52.222;20.916;2024-03-08T10:55:57;100859.41;;;10.76;38.94
21779;BME280;11050;52.222;20.916;2024-03-08T10:58:26;100852.81;;;10.89;39.13
21779;BME280;11050;52.222;20.916;2024-03-08T11:00:56;100845.13;;;11.02;38.98
21779;BME280;11050;52.222;20.916;2024-03-08T11:06:09;100839.72;;;11.35;38.92
21779;BME280;11050;52.222;20.916;2024-03-08T11:08:40;100840.53;;;11.64;37.47
21779;BME280;11050;52.222;20.916;2024-03-08T11:11:23;100825.06;;;11.75;37.14
21779;BME280;11050;52.222;20.916;2024-03-08T11:13:53;100839.44;;;12.10;37.22
21779;BME280;11050;52.222;20.916;2024-03-08T11:21:43;100816.38;;;12.92;35.31
21779;BME280;11050;52.222;20.916;2024-03-08T11:24:14;100826.22;;;13.26;35.75
21779;BME280;11050;52.222;20.916;2024-03-08T11:26:40;100822.06;;;13.51;35.34
21779;BME280;11050;52.222;20.916;2024-03-08T11:32:27;100810.97;;;14.09;33.31
21779;BME280;11050;52.222;20.916;2024-03-08T11:34:54;100806.19;;;14.31;33.67
21779;BME280;11050;52.222;20.916;2024-03-08T11:37:21;100815.56;;;14.67;32.43
21779;BME280;11050;52.222;20.916;2024-03-08T11:42:14;100806.28;;;14.93;31.54
21779;BME280;11050;52.222;20.916;2024-03-08T11:44:46;100800.59;;;15.19;31.68
21779;BME280;11050;52.222;20.916;2024-03-08T11:47:14;100803.75;;;15.58;30.23
21779;BME280;11050;52.222;20.916;2024-03-08T11:49:40;100804.06;;;15.82;30.12
21779;BME280;11050;52.222;20.916;2024-03-08T11:52:13;100805.16;;;16.16;29.17
21779;BME280;11050;52.222;20.916;2024-03-08T11:54:41;100791.81;;;16.43;29.25
21779;BME280;11050;52.222;20.916;2024-03-08T11:57:07;100792.88;;;16.77;28.62
21779;BME280;11050;52.222;20.916;2024-03-08T11:59:34;100791.09;;;17.01;27.74
21779;BME280;11050;52.222;20.916;2024-03-08T12:02:05;100789.13;;;17.07;26.91
21779;BME280;11050;52.222;20.916;2024-03-08T12:04:32;100790.44;;;17.20;27.54
21779;BME280;11050;52.222;20.916;2024-03-08T12:07:02;100784.94;;;17.63;26.53
21779;BME280;11050;52.222;20.916;2024-03-08T12:09:35;100792.13;;;18.03;26.28
21779;BME280;11050;52.222;20.916;2024-03-08T12:12:03;100780.03;;;18.51;25.96
21779;BME280;11050;52.222;20.916;2024-03-08T12:14:30;100775.97;;;18.86;25.63
21779;BME280;11050;52.222;20.916;2024-03-08T12:16:57;100783.63;;;18.99;24.42
21779;BME280;11050;52.222;20.916;2024-03-08T12:19:23;100777.16;;;19.04;24.83
21779;BME280;11050;52.222;20.916;2024-03-08T12:21:49;100774.41;;;19.22;24.49
21779;BME280;11050;52.222;20.916;2024-03-08T12:24:16;100767.53;;;19.57;24.32
21779;BME280;11050;52.222;20.916;2024-03-08T12:26:48;100763.69;;;20.04;23.40
21779;BME280;11050;52.222;20.916;2024-03-08T12:29:24;100761.22;;;20.34;22.74
21779;BME280;11050;52.222;20.916;2024-03-08T12:31:55;100757.13;;;20.59;23.77
21779;BME280;11050;52.222;20.916;2024-03-08T12:34:24;100766.03;;;21.02;22.67
21779;BME280;11050;52.222;20.916;2024-03-08T12:36:52;100762.59;;;21.32;22.18
21779;BME280;11050;52.222;20.916;2024-03-08T12:39:20;100753.69;;;21.30;22.17
21779;BME280;11050;52.222;20.916;2024-03-08T12:41:56;100751.09;;;21.55;20.85
21779;BME280;11050;52.222;20.916;2024-03-08T12:44:27;100751.59;;;21.22;21.38
21779;BME280;11050;52.222;20.916;2024-03-08T12:46:54;100745.69;;;21.23;21.48
21779;BME280;11050;52.222;20.916;2024-03-08T12:49:20;100747.19;;;21.56;21.35
21779;BME280;11050;52.222;20.916;2024-03-08T12:51:49;100738.44;;;21.94;21.02
21779;BME280;11050;52.222;20.916;2024-03-08T12:54:15;100741.28;;;22.55;20.83
21779;BME280;11050;52.222;20.916;2024-03-08T12:56:40;100741.28;;;22.94;20.15
21779;BME280;11050;52.222;20.916;2024-03-08T12:59:08;100735.41;;;23.21;19.56